Historique des mesures à Cassis (13260), France
Quotidien Résumé Juin 28, 2018 Unités:  Métrique    US   Métrique/US
« Précédent (Jour)
Suivant (Jour) »
Quotidien Hebdomadaire Mensuel Annuel Période au choix
  Maximum: Minimum: Moyenne:
Température: TemperatureC °C 20.7 °C 24.3 °C
Point de rosée: DewpointC °C 14.6 °C 16.6 °C
Humidité: Humidity % 51 % 59 %
Vitesse du vent: 0 km/h 0 km/h 4 km/h
Rafales: 0 km/h - -
Vent:- - SW
Pression: PressurehPa hPa 1005.9 hPa -
Précipitations: 0.0 mm    
Historical Graphs
 
 
Mesures pour : Juin 28, 2018
Heure Temperature Point de rosée Pression Vent Vitesse du vent Rafales Humidité Pluie (par heure) Conditions
TemperatureC °C DewpointC °C PressurehPa hPa Calm     Humidity % HourlyPrecipMM mm SoftwareType W/m2
00:10 22.8 °C 15.3 °C 1007.6 hPa WNW 13.2 km/h 13.2 km/h 63 % 0.0 mm open2300-1.11 W/m2
01:10 22.4 °C 15.0 °C 1007.2 hPa Calm     63 % 0.0 mm open2300-1.11 W/m2
02:10 21.9 °C 15.0 °C 1007.1 hPa Calm   2.3 km/h 65 % 0.0 mm open2300-1.11 W/m2
03:10 21.8 °C 14.9 °C 1007.0 hPa NNE 5.6 km/h 5.6 km/h 65 % 0.0 mm open2300-1.11 W/m2
04:10 21.5 °C 14.9 °C 1006.3 hPa NNW 2.9 km/h 5.1 km/h 66 % 0.0 mm open2300-1.11 W/m2
05:10 21.2 °C 14.6 °C 1006.5 hPa WNW 9.3 km/h 9.3 km/h 66 % 0.0 mm open2300-1.11 W/m2
06:10 20.7 °C 15.0 °C 1006.4 hPa Calm   3.4 km/h 70 % 0.0 mm open2300-1.11 W/m2
07:10 20.9 °C 16.1 °C 1006.5 hPa NNW 2.9 km/h 2.9 km/h 74 % 0.0 mm open2300-1.11 W/m2
08:10 23.3 °C 17.6 °C 1006.5 hPa West 9.3 km/h 9.3 km/h 70 % 0.0 mm open2300-1.11 W/m2
09:10 23.7 °C 17.7 °C 1006.5 hPa West 5.6 km/h 5.6 km/h 69 % 0.0 mm open2300-1.11 W/m2
10:10 25.5 °C 19.2 °C 1006.5 hPa NW 4.2 km/h 4.7 km/h 68 % 0.0 mm open2300-1.11 W/m2
11:10 29.5 °C 20.4 °C 1006.2 hPa Calm   5.1 km/h 58 % 0.0 mm open2300-1.11 W/m2
12:10 29.6 °C 19.6 °C 1006.2 hPa SE 10.3 km/h 10.3 km/h 55 % 0.0 mm open2300-1.11 W/m2
13:10 30.0 °C 19.7 °C 1006.0 hPa Calm   14 km/h 54 % 0.0 mm open2300-1.11 W/m2
14:10 30.9 °C 19.9 °C 1006.1 hPa SSE 13.2 km/h 13.2 km/h 52 % 0.0 mm open2300-1.11 W/m2
15:10 30.4 °C 19.4 °C 1006.2 hPa SSE 2.3 km/h 9.3 km/h 52 % 0.0 mm open2300-1.11 W/m2
16:10 29.8 °C 18.6 °C 1006.3 hPa Calm   8 km/h 51 % 0.0 mm open2300-1.11 W/m2
17:10 28.1 °C 19.0 °C 1005.9 hPa SSE 4.2 km/h 14 km/h 58 % 0.0 mm open2300-1.11 W/m2
18:10 27.5 °C 18.2 °C 1006.3 hPa ESE 6.4 km/h 10.3 km/h 57 % 0.0 mm open2300-1.11 W/m2
19:10 27.4 °C 17.5 °C 1006.3 hPa WSW 6.9 km/h 6.9 km/h 55 % 0.0 mm open2300-1.11 W/m2
20:10 26.6 °C 16.8 °C 1006.3 hPa SW 2.3 km/h 2.3 km/h 55 % 0.0 mm open2300-1.11 W/m2
21:10 25.2 °C 16.9 °C 1007.0 hPa Calm   2.3 km/h 60 % 0.0 mm open2300-1.11 W/m2
22:10 24.3 °C 17.1 °C 1007.5 hPa Calm     64 % 0.0 mm open2300-1.11 W/m2
23:10 23.1 °C 16.4 °C 1007.6 hPa Calm     66 % 0.0 mm open2300-1.11 W/m2
Observations météo à CASSIS
WU-History script by Weather Underground - 1 mb